Thunder radar more information blitzortung!


Radar de pluja more information rain snow radar


Visita la nostra xarxa de llocs de meteo:

Template documentation
and downloads

And another site



No particular awareness of the weather is required.    There are no Weather-warnings

Pagina Historial Weather Underground text

Diari Resum May 3, 2017 Unitats:  Mètric    Imperial   Tant
« Previous Dia
SegĂźent Dia »
Diari Setmana Mensual Anual Personalitzada
  Maxima: Minima: Media:
Temperatura: 16.2 °C 11.0 °C 13.9 °C
Punt de rosada: 13.0 °C 7.9 °C 10.5 °C
Humitat: 90 % 64 % 80 %
Wind Speed: 14.8 km/h 0.0 km/h 5.3 km/h
RĂ fegues de vent: 14.8 km/h - -
Vent:- - East
Pression baro: 1019.9 hPa 1015.8 hPa -
Precipitacions: 6.3 mm    
Historical Graphs
 
 
Dades de taula per May 3, 2017
Temps Temperatura Punt de rosada Pression baro Vent Wind Speed RĂ fegues de vent Humitat Rainfall Rate (Hourly)
11:10 14.7 °C 8.2 °C 1018.8 hPa East 1.6 km/h 4.8 km/h 65 % 0.0 mm
11:11 14.9 °C 8.4 °C 1018.8 hPa NE 3.7 km/h 3.9 km/h 65 % 0.0 mm
11:12 14.9 °C 8.4 °C 1018.8 hPa ESE 3.7 km/h 3.7 km/h 65 % 0.0 mm
11:13 14.7 °C 8.2 °C 1019.9 hPa ENE 3.7 km/h 3.9 km/h 65 % 0.0 mm
11:18 14.7 °C 7.9 °C 1019.9 hPa ESE 7.4 km/h 7.4 km/h 64 % 0.0 mm
11:23 14.7 °C 8.2 °C 1019.9 hPa SE 5.6 km/h 5.8 km/h 65 % 0.0 mm
11:28 14.8 °C 8.3 °C 1018.8 hPa ESE 3.7 km/h 3.9 km/h 65 % 0.0 mm
11:33 14.8 °C 8.3 °C 1018.8 hPa SE 3.7 km/h 3.7 km/h 65 % 0.0 mm
11:38 15.0 °C 8.4 °C 1018.8 hPa NE 5.6 km/h 5.6 km/h 65 % 0.0 mm
11:43 15.0 °C 8.4 °C 1018.8 hPa SSW 5.6 km/h 5.6 km/h 65 % 0.0 mm
11:48 15.6 °C 9.3 °C 1018.8 hPa ESE 6.1 km/h 6.1 km/h 66 % 0.0 mm
11:53 15.5 °C 8.9 °C 1018.8 hPa SE 9.3 km/h 9.3 km/h 65 % 0.0 mm
11:58 15.4 °C 8.8 °C 1018.8 hPa SE 5.6 km/h 5.6 km/h 65 % 0.0 mm
12:03 15.6 °C 9.1 °C 1018.8 hPa ENE 11.1 km/h 11.1 km/h 65 % 0.0 mm
12:08 15.6 °C 9.1 °C 1018.8 hPa ENE 5.6 km/h 5.6 km/h 65 % 0.0 mm
12:13 15.6 °C 9.1 °C 1018.8 hPa NE 7.4 km/h 7.4 km/h 65 % 0.0 mm
12:18 15.6 °C 8.8 °C 1018.8 hPa NE 5.6 km/h 5.6 km/h 64 % 0.0 mm
12:20 15.7 °C 8.9 °C 1018.8 hPa ESE 11.1 km/h 11.1 km/h 64 % 0.0 mm
12:25 15.7 °C 8.9 °C 1018.8 hPa East 7.4 km/h 7.4 km/h 64 % 0.0 mm
12:30 15.7 °C 8.9 °C 1018.8 hPa NNE 7.4 km/h 7.4 km/h 64 % 0.0 mm
12:35 15.8 °C 9.2 °C 1018.8 hPa East 5.6 km/h 5.6 km/h 65 % 0.0 mm
12:40 15.9 °C 9.1 °C 1018.8 hPa NNE 7.4 km/h 7.4 km/h 64 % 0.0 mm
12:45 15.9 °C 9.1 °C 1017.8 hPa ENE 5.6 km/h 5.6 km/h 64 % 0.0 mm
12:50 16.0 °C 9.4 °C 1017.8 hPa NE 7.4 km/h 7.4 km/h 65 % 0.0 mm
12:55 15.8 °C 9.2 °C 1017.8 hPa SE 4.2 km/h 4.7 km/h 65 % 0.0 mm
13:00 15.8 °C 9.2 °C 1018.8 hPa SSE 9.3 km/h 9.3 km/h 65 % 0.0 mm
13:05 15.6 °C 9.1 °C 1018.8 hPa East 7.4 km/h 7.4 km/h 65 % 0.0 mm
13:10 15.6 °C 9.1 °C 1018.8 hPa ENE 7.4 km/h 7.4 km/h 65 % 0.0 mm
13:15 15.6 °C 9.3 °C 1018.8 hPa East 9.3 km/h 9.3 km/h 66 % 0.0 mm
13:20 15.5 °C 9.4 °C 1018.8 hPa ESE 9.3 km/h 9.3 km/h 67 % 0.0 mm
13:25 15.4 °C 9.5 °C 1018.8 hPa SE 7.4 km/h 7.4 km/h 68 % 0.0 mm
13:30 15.3 °C 9.4 °C 1018.8 hPa ENE 5.6 km/h 5.6 km/h 68 % 0.0 mm
13:35 15.3 °C 9.7 °C 1018.8 hPa East 7.4 km/h 7.4 km/h 69 % 0.0 mm
13:40 15.2 °C 9.6 °C 1018.8 hPa ESE 7.4 km/h 7.4 km/h 69 % 0.0 mm
13:45 15.1 °C 9.7 °C 1018.8 hPa East 6.4 km/h 6.4 km/h 70 % 0.0 mm
13:50 15.0 °C 9.8 °C 1018.8 hPa East 5.6 km/h 5.6 km/h 71 % 0.0 mm
13:55 15.0 °C 10.0 °C 1018.8 hPa ENE 5.6 km/h 5.6 km/h 72 % 0.0 mm
14:00 14.9 °C 9.9 °C 1018.8 hPa ENE 7.4 km/h 7.4 km/h 72 % 0.0 mm
14:05 14.7 °C 10.1 °C 1018.8 hPa ENE 5.6 km/h 5.6 km/h 74 % 0.0 mm
14:10 14.5 °C 9.9 °C 1018.8 hPa ENE 7.4 km/h 7.4 km/h 74 % 0.0 mm
14:15 14.5 °C 10.5 °C 1018.8 hPa ENE 3.7 km/h 3.7 km/h 77 % 0.0 mm
14:20 14.3 °C 10.3 °C 1018.8 hPa NNE 5.6 km/h 5.6 km/h 77 % 0.0 mm
14:25 14.2 °C 10.4 °C 1018.8 hPa NNE 5.6 km/h 5.6 km/h 78 % 0.0 mm
14:30 14.0 °C 10.2 °C 1018.8 hPa ENE 7.4 km/h 7.4 km/h 78 % 0.0 mm
14:35 13.9 °C 10.1 °C 1018.8 hPa NNW 5.6 km/h 5.6 km/h 78 % 1.0 mm
14:40 13.8 °C 10.1 °C 1018.8 hPa North 5.6 km/h 5.6 km/h 78 % 3.0 mm
14:45 13.5 °C 9.9 °C 1018.8 hPa NE 9.3 km/h 9.3 km/h 79 % 4.3 mm
14:50 13.4 °C 10.0 °C 1018.8 hPa ENE 7.4 km/h 7.4 km/h 80 % 4.3 mm
14:55 13.4 °C 10.2 °C 1018.8 hPa NNE 3.7 km/h 3.7 km/h 81 % 5.1 mm
15:00 13.4 °C 10.2 °C 1018.8 hPa ENE 5.8 km/h 5.8 km/h 81 % 5.1 mm
15:05 13.3 °C 10.1 °C 1018.8 hPa ENE 5.6 km/h 5.6 km/h 81 % 5.1 mm
15:10 13.2 °C 10.2 °C 1018.8 hPa ENE 7.4 km/h 7.4 km/h 82 % 5.1 mm
15:15 13.1 °C 10.1 °C 1018.8 hPa ENE 7.4 km/h 7.4 km/h 82 % 5.1 mm
15:20 13.2 °C 10.4 °C 1018.8 hPa ENE 4.2 km/h 4.2 km/h 83 % 6.3 mm
15:25 13.3 °C 10.5 °C 1018.8 hPa ENE 5.6 km/h 5.6 km/h 83 % 6.3 mm
15:30 13.2 °C 10.4 °C 1018.8 hPa East 5.6 km/h 5.6 km/h 83 % 6.3 mm
15:35 13.3 °C 10.7 °C 1018.8 hPa ESE 9.5 km/h 9.5 km/h 84 % 5.3 mm
15:40 13.3 °C 10.7 °C 1018.8 hPa ESE 13.0 km/h 13.0 km/h 84 % 3.3 mm
15:45 13.4 °C 10.8 °C 1016.8 hPa ESE 5.6 km/h 5.6 km/h 84 % 2.0 mm
15:50 13.4 °C 10.9 °C 1016.8 hPa ESE 7.4 km/h 7.4 km/h 85 % 2.0 mm
15:55 13.3 °C 10.7 °C 1016.8 hPa SE 9.3 km/h 9.3 km/h 84 % 1.3 mm
16:00 13.3 °C 10.7 °C 1017.8 hPa ESE 13.0 km/h 13.0 km/h 84 % 1.3 mm
16:05 13.6 °C 10.9 °C 1017.8 hPa East 9.3 km/h 9.3 km/h 84 % 1.3 mm
16:10 13.7 °C 11.2 °C 1017.8 hPa ENE 5.6 km/h 5.6 km/h 85 % 1.3 mm
16:15 13.8 °C 11.3 °C 1017.8 hPa East 9.5 km/h 9.5 km/h 85 % 1.3 mm
16:20 13.7 °C 11.1 °C 1017.8 hPa NNE 7.4 km/h 7.4 km/h 84 % 0.0 mm
16:25 13.8 °C 11.2 °C 1017.8 hPa ENE 5.6 km/h 5.6 km/h 84 % 0.0 mm
16:30 14.0 °C 11.5 °C 1017.8 hPa NNE 9.3 km/h 9.3 km/h 85 % 0.0 mm
16:35 14.0 °C 11.3 °C 1017.8 hPa NNE 6.1 km/h 6.1 km/h 84 % 0.0 mm
16:40 13.9 °C 11.2 °C 1017.8 hPa NNE 9.3 km/h 9.3 km/h 84 % 0.0 mm
16:45 14.0 °C 11.5 °C 1017.8 hPa NNE 7.4 km/h 7.4 km/h 85 % 0.0 mm
16:50 14.1 °C 11.6 °C 1017.8 hPa NNE 3.7 km/h 3.7 km/h 85 % 0.0 mm
16:55 14.0 °C 11.3 °C 1017.8 hPa NNE 5.6 km/h 5.6 km/h 84 % 0.0 mm
17:00 14.0 °C 11.5 °C 1016.8 hPa East 7.4 km/h 7.4 km/h 85 % 0.0 mm
17:01 14.0 °C 11.5 °C 1016.8 hPa East 7.4 km/h 7.4 km/h 85 % 0.0 mm
17:06 14.1 °C 11.6 °C 1016.8 hPa East 5.6 km/h 5.6 km/h 85 % 0.0 mm
17:11 14.1 °C 11.4 °C 1016.8 hPa ENE 5.6 km/h 5.6 km/h 84 % 0.0 mm
17:16 14.2 °C 11.7 °C 1017.8 hPa ENE 7.4 km/h 7.4 km/h 85 % 0.0 mm
17:21 14.3 °C 11.6 °C 1017.8 hPa SSE 5.6 km/h 5.6 km/h 84 % 0.0 mm
17:26 14.5 °C 11.8 °C 1017.8 hPa ESE 3.5 km/h 3.5 km/h 84 % 0.0 mm
17:31 14.6 °C 11.9 °C 1017.8 hPa ENE 5.8 km/h 5.8 km/h 84 % 0.0 mm
17:36 14.7 °C 12.0 °C 1017.8 hPa ESE 3.7 km/h 3.7 km/h 84 % 0.0 mm
17:41 15.1 °C 12.6 °C 1017.8 hPa ESE 5.0 km/h 5.0 km/h 85 % 0.0 mm
17:46 15.2 °C 12.5 °C 1017.8 hPa ESE 5.6 km/h 5.6 km/h 84 % 0.0 mm
17:51 15.6 °C 12.7 °C 1017.8 hPa SSE 3.7 km/h 3.7 km/h 83 % 0.0 mm
17:56 15.9 °C 13.0 °C 1017.8 hPa South 7.4 km/h 7.4 km/h 83 % 0.0 mm
18:01 16.1 °C 12.8 °C 1016.8 hPa South 3.7 km/h 3.7 km/h 81 % 0.0 mm
18:06 16.0 °C 12.7 °C 1016.8 hPa SSE 5.6 km/h 5.6 km/h 81 % 0.0 mm
18:11 16.0 °C 12.7 °C 1016.8 hPa SSW 5.6 km/h 5.6 km/h 81 % 0.0 mm
18:16 15.9 °C 12.7 °C 1016.8 hPa ESE 5.6 km/h 5.6 km/h 81 % 0.0 mm
18:18 15.8 °C 12.6 °C 1016.8 hPa ESE 7.4 km/h 7.4 km/h 81 % 0.0 mm
18:21 15.8 °C 12.6 °C 1016.8 hPa East 3.7 km/h 3.7 km/h 81 % 0.0 mm
18:26 16.1 °C 12.8 °C 1016.8 hPa SSE 5.0 km/h 5.0 km/h 81 % 0.0 mm
18:31 16.2 °C 12.7 °C 1016.8 hPa SSE 5.6 km/h 5.6 km/h 80 % 0.0 mm
18:36 15.8 °C 12.3 °C 1016.8 hPa ENE 9.3 km/h 9.3 km/h 80 % 0.0 mm
18:41 15.6 °C 12.3 °C 1016.8 hPa ESE 7.4 km/h 7.4 km/h 81 % 0.0 mm
18:46 15.4 °C 12.2 °C 1016.8 hPa ESE 9.3 km/h 9.3 km/h 81 % 0.0 mm
18:51 15.3 °C 12.2 °C 1016.8 hPa ESE 6.1 km/h 6.1 km/h 82 % 0.0 mm
18:56 15.3 °C 12.2 °C 1016.8 hPa ESE 7.6 km/h 7.6 km/h 82 % 0.0 mm
19:01 15.2 °C 12.2 °C 1015.8 hPa NE 7.4 km/h 7.4 km/h 82 % 0.0 mm
19:06 15.3 °C 12.2 °C 1015.8 hPa ESE 9.3 km/h 9.3 km/h 82 % 0.0 mm
19:11 15.3 °C 12.1 °C 1015.8 hPa ESE 7.4 km/h 7.4 km/h 81 % 0.0 mm
19:16 15.4 °C 12.2 °C 1015.8 hPa ENE 7.4 km/h 7.4 km/h 81 % 0.0 mm
19:20 12.2 °C 9.9 °C 1017.8 hPa Calm     86 % 0.0 mm
19:21 15.3 °C 12.1 °C 1015.8 hPa ESE 11.9 km/h 11.9 km/h 81 % 0.0 mm
19:26 15.2 °C 12.2 °C 1015.8 hPa ESE 7.4 km/h 7.4 km/h 82 % 0.0 mm
19:30 12.2 °C 10.1 °C 1017.8 hPa Calm   1.6 km/h 87 % 0.0 mm
19:31 15.2 °C 12.2 °C 1015.8 hPa NNE 7.4 km/h 7.4 km/h 82 % 0.0 mm
19:36 15.1 °C 11.9 °C 1015.8 hPa ESE 9.3 km/h 9.3 km/h 81 % 0.0 mm
19:40 12.1 °C 10.0 °C 1017.8 hPa NE 1.6 km/h 3.2 km/h 87 % 0.0 mm
19:41 15.2 °C 11.9 °C 1015.8 hPa SSE 5.0 km/h 5.0 km/h 81 % 0.0 mm
19:46 15.2 °C 11.8 °C 1015.8 hPa ENE 9.0 km/h 9.0 km/h 80 % 0.0 mm
19:50 12.0 °C 9.9 °C 1017.8 hPa Calm     87 % 0.0 mm
19:51 15.3 °C 11.9 °C 1015.8 hPa NE 9.3 km/h 9.3 km/h 80 % 0.0 mm
19:56 15.2 °C 11.6 °C 1015.8 hPa SE 9.7 km/h 9.7 km/h 79 % 0.0 mm
20:00 11.9 °C 9.8 °C 1017.8 hPa Calm     87 % 0.0 mm
20:01 15.1 °C 11.5 °C 1015.8 hPa ENE 7.4 km/h 7.4 km/h 79 % 0.0 mm
20:06 14.9 °C 11.3 °C 1015.8 hPa ENE 13.0 km/h 13.0 km/h 79 % 0.0 mm
20:10 11.8 °C 9.7 °C 1017.8 hPa Calm   1.6 km/h 87 % 0.0 mm
20:11 14.8 °C 11.4 °C 1015.8 hPa ESE 14.8 km/h 14.8 km/h 80 % 0.0 mm
20:16 14.7 °C 11.3 °C 1015.8 hPa NE 14.8 km/h 14.8 km/h 80 % 0.0 mm
20:20 11.9 °C 10.0 °C 1017.8 hPa Calm     88 % 0.0 mm
20:21 14.6 °C 11.4 °C 1015.8 hPa ENE 11.1 km/h 11.1 km/h 81 % 0.0 mm
20:26 14.6 °C 11.6 °C 1015.8 hPa ENE 11.1 km/h 11.1 km/h 82 % 0.0 mm
20:29 14.5 °C 11.4 °C 1016.8 hPa ENE 5.6 km/h 5.6 km/h 82 % 0.0 mm
20:30 11.8 °C 9.9 °C 1017.8 hPa Calm     88 % 0.0 mm
20:31 14.5 °C 11.3 °C 1016.8 hPa ESE 9.3 km/h 9.3 km/h 81 % 0.0 mm
20:36 14.4 °C 11.4 °C 1016.8 hPa ENE 6.4 km/h 6.4 km/h 82 % 0.0 mm
20:40 11.7 °C 9.8 °C 1017.8 hPa Calm     88 % 0.0 mm
20:41 14.3 °C 11.3 °C 1016.8 hPa East 9.3 km/h 9.3 km/h 82 % 0.0 mm
20:46 14.3 °C 11.3 °C 1016.8 hPa ESE 6.9 km/h 6.9 km/h 82 % 0.0 mm
20:50 11.6 °C 9.7 °C 1017.8 hPa Calm     88 % 0.0 mm
20:51 14.2 °C 11.2 °C 1016.8 hPa NNE 7.4 km/h 7.4 km/h 82 % 0.0 mm
20:56 14.1 °C 11.1 °C 1016.8 hPa SE 9.3 km/h 9.3 km/h 82 % 0.0 mm
21:00 11.6 °C 9.7 °C 1017.8 hPa Calm     88 % 0.0 mm
21:01 14.1 °C 11.1 °C 1016.8 hPa ESE 5.8 km/h 5.8 km/h 82 % 0.0 mm
21:06 14.0 °C 11.0 °C 1016.8 hPa ESE 7.4 km/h 7.4 km/h 82 % 0.0 mm
21:10 11.4 °C 9.5 °C 1017.8 hPa Calm     88 % 0.0 mm
21:11 13.9 °C 10.9 °C 1016.8 hPa ESE 7.4 km/h 7.4 km/h 82 % 0.0 mm
21:16 13.8 °C 10.8 °C 1016.8 hPa ESE 5.6 km/h 5.6 km/h 82 % 0.0 mm
21:20 11.5 °C 9.6 °C 1017.8 hPa Calm     88 % 0.0 mm
21:21 13.7 °C 10.7 °C 1016.8 hPa ENE 5.6 km/h 5.6 km/h 82 % 0.0 mm
21:26 13.6 °C 10.6 °C 1016.8 hPa ENE 7.4 km/h 7.4 km/h 82 % 0.0 mm
21:30 11.5 °C 9.7 °C 1017.8 hPa Calm     89 % 0.0 mm
21:31 13.5 °C 10.5 °C 1016.8 hPa NE 3.7 km/h 3.7 km/h 82 % 0.0 mm
21:36 13.4 °C 10.4 °C 1016.8 hPa NE 3.7 km/h 3.7 km/h 82 % 0.0 mm
21:40 11.5 °C 9.7 °C 1016.8 hPa Calm     89 % 0.0 mm
21:41 13.4 °C 10.4 °C 1016.8 hPa ESE 5.6 km/h 5.6 km/h 82 % 0.0 mm
21:46 13.3 °C 10.3 °C 1016.8 hPa ENE 3.7 km/h 3.7 km/h 82 % 0.0 mm
21:49 13.3 °C 10.5 °C 1016.8 hPa ESE 5.6 km/h 5.6 km/h 83 % 0.0 mm
21:50 13.3 °C 10.5 °C 1016.8 hPa ENE 2.3 km/h 2.3 km/h 83 % 0.0 mm
21:52 13.3 °C 10.3 °C 1016.8 hPa East 3.7 km/h 3.7 km/h 82 % 0.0 mm
21:57 13.2 °C 10.4 °C 1016.8 hPa ENE 7.4 km/h 7.4 km/h 83 % 0.0 mm
22:00 11.4 °C 9.7 °C 1016.8 hPa Calm     89 % 0.0 mm
22:02 13.2 °C 10.4 °C 1017.8 hPa SE 7.4 km/h 7.4 km/h 83 % 0.0 mm
22:07 13.1 °C 10.3 °C 1017.8 hPa ENE 5.6 km/h 5.6 km/h 83 % 0.0 mm
22:10 11.4 °C 9.7 °C 1016.8 hPa Calm     89 % 0.0 mm
22:12 13.1 °C 10.3 °C 1017.8 hPa ESE 5.6 km/h 5.6 km/h 83 % 0.0 mm
22:17 13.0 °C 10.2 °C 1017.8 hPa East 5.3 km/h 5.3 km/h 83 % 0.0 mm
22:20 11.3 °C 9.6 °C 1015.8 hPa Calm     89 % 0.0 mm
22:22 12.9 °C 10.1 °C 1017.8 hPa ENE 3.5 km/h   83 % 0.0 mm
22:27 12.8 °C 10.2 °C 1017.8 hPa Calm     84 % 0.0 mm
22:30 11.3 °C 9.7 °C 1015.8 hPa Calm     90 % 0.0 mm
22:32 12.8 °C 10.2 °C 1017.8 hPa ENE 2.3 km/h   84 % 0.0 mm
22:37 12.7 °C 10.1 °C 1017.8 hPa East 3.7 km/h 3.7 km/h 84 % 0.0 mm
22:40 11.3 °C 9.7 °C 1015.8 hPa Calm     90 % 0.0 mm
22:42 12.7 °C 10.1 °C 1017.8 hPa East 1.4 km/h   84 % 0.0 mm
22:47 12.6 °C 9.9 °C 1017.8 hPa East 1.9 km/h 1.9 km/h 84 % 0.0 mm
22:50 11.3 °C 9.7 °C 1015.8 hPa Calm   1.6 km/h 90 % 0.0 mm
22:52 12.6 °C 9.9 °C 1017.8 hPa Calm     84 % 0.0 mm
22:57 12.6 °C 9.9 °C 1017.8 hPa NNE 3.7 km/h 3.7 km/h 84 % 0.0 mm
23:00 11.2 °C 9.6 °C 1015.8 hPa Calm     90 % 0.0 mm
23:02 12.5 °C 9.9 °C 1017.8 hPa Calm     84 % 0.0 mm
23:07 12.5 °C 9.9 °C 1017.8 hPa Calm     84 % 0.0 mm
23:12 12.4 °C 9.8 °C 1017.8 hPa Calm     84 % 0.0 mm
23:17 12.4 °C 9.8 °C 1017.8 hPa Calm     84 % 0.0 mm
23:20 11.0 °C 9.3 °C 1015.8 hPa Calm   3.2 km/h 89 % 0.0 mm
23:22 12.4 °C 9.9 °C 1017.8 hPa Calm     85 % 0.0 mm
23:27 12.4 °C 9.9 °C 1017.8 hPa NNW 1.9 km/h   85 % 0.0 mm
23:30 11.0 °C 9.3 °C 1015.8 hPa SW 1.6 km/h 3.2 km/h 89 % 0.0 mm
23:32 12.4 °C 9.9 °C 1017.8 hPa Calm     85 % 0.0 mm
23:37 12.3 °C 9.7 °C 1017.8 hPa Calm     84 % 0.0 mm
23:40 11.1 °C 9.5 °C 1015.8 hPa Calm   1.6 km/h 90 % 0.0 mm
23:42 12.3 °C 9.8 °C 1017.8 hPa Calm     85 % 0.0 mm
23:47 12.4 °C 9.9 °C 1017.8 hPa NE 3.7 km/h 3.7 km/h 85 % 0.0 mm
23:50 11.1 °C 9.5 °C 1015.8 hPa Calm     90 % 0.0 mm
23:52 12.3 °C 10.0 °C 1017.8 hPa Calm     86 % 0.0 mm
23:57 12.3 °C 10.0 °C 1017.8 hPa NNE 1.4 km/h   86 % 0.0 mm
Meteo Sesrovires
Elogis d' Weather Underground - 3.5 mb

Guio original per  Jim McMurry - jmcmurry@mwt.net Adaptat per a la plantilla per  Wim van der Kuil - Leuven-Template.eu

Trobareu la nostra informacio del temps tambe a:

Weather Underground

AWEKAS